| Date | Time | Temp. (oF) | Dew Point (oF) | Rel. Hum. (%) | Press. (in.) | Wind Dir. | Wind Speed (mph) | Hourly Rainfall (in.) |
|
|---|---|---|---|---|---|---|---|---|---|
| 1 | 02/25 | 00:00 | 62 | 58 | 87 | 29.78 | NW | 0 | 0.00 |
| 2 | 02/24 | 23:00 | 62 | 57 | 86 | 29.79 | NW | 0 | 0.00 |
| 3 | 02/24 | 22:00 | 63 | 58 | 86 | 29.79 | NW | 0 | 0.00 |
| 4 | 02/24 | 21:00 | 63 | 56 | 78 | 29.80 | NW | 0 | 0.00 |
| 5 | 02/24 | 20:00 | 64 | 53 | 69 | 29.80 | NW | 0 | 0.00 |
| 6 | 02/24 | 19:00 | 65 | 52 | 65 | 29.80 | NW | 0 | 0.00 |
| 7 | 02/24 | 18:00 | 67 | 52 | 59 | 29.80 | NW | 0 | 0.00 |
| 8 | 02/24 | 17:00 | 69 | 52 | 55 | 29.79 | NW | 0 | 0.00 |
| 9 | 02/24 | 16:00 | 72 | 52 | 51 | 29.80 | NW | 0 | 0.00 |
| 10 | 02/24 | 15:00 | 73 | 53 | 50 | 29.81 | NW | 0 | 0.00 |
| 11 | 02/24 | 14:00 | 74 | 53 | 49 | 29.82 | NW | 0 | 0.00 |
| 12 | 02/24 | 13:00 | 75 | 52 | 46 | 29.83 | NW | 0 | 0.00 |
| 13 | 02/24 | 12:00 | 73 | 54 | 52 | 29.87 | NW | 0 | 0.00 |
| 14 | 02/24 | 11:00 | 68 | 53 | 61 | 29.90 | NW | 0 | 0.00 |
| 15 | 02/24 | 10:00 | 63 | 53 | 71 | 29.91 | NW | 0 | 0.00 |
| 16 | 02/24 | 09:00 | 59 | 53 | 83 | 29.92 | NW | 0 | 0.00 |
| 17 | 02/24 | 08:00 | 55 | 52 | 91 | 29.91 | NW | 0 | 0.00 |
| 18 | 02/24 | 07:00 | 52 | 50 | 93 | 29.89 | NW | 0 | 0.00 |
| 19 | 02/24 | 06:00 | 53 | 50 | 90 | 29.89 | NW | 0 | 0.00 |
| 20 | 02/24 | 05:00 | 56 | 50 | 83 | 29.88 | NW | 0 | 0.00 |
| 21 | 02/24 | 04:00 | 56 | 50 | 82 | 29.88 | NW | 0 | 0.00 |
| 22 | 02/24 | 03:00 | 57 | 51 | 81 | 29.88 | NW | 0 | 0.00 |
| 23 | 02/24 | 02:00 | 57 | 50 | 79 | 29.88 | NW | 0 | 0.00 |
| 24 | 02/24 | 01:00 | 58 | 50 | 76 | 29.88 | NW | 0 | 0.00 |